Time;durP1;ratioP1;P1;durP2;ratioP2;P2;SDS_P1;SDS_P2;PMS_P1;PMS_P2;Temp;Humidity;BMP_temperature;BMP_pressure;BME280_temperature;BME280_humidity;BME280_pressure;Samples;Min_cycle;Max_cycle;Signal;HPM_P1;HPM_P2
2021/08/18 00:00:00;;;;;;;60.13;28.93;;;14.30;99.90;;;;;;5053792;28;20217;-59
2021/08/18 00:02:27;;;;;;;54.63;29.47;;;14.30;99.90;;;;;;5053937;28;20295;-60
2021/08/18 00:04:54;;;;;;;53.83;29.00;;;14.30;99.90;;;;;;5053802;28;20209;-60
2021/08/18 00:07:22;;;;;;;55.43;28.80;;;14.30;99.90;;;;;;5053874;28;20205;-56
2021/08/18 00:09:49;;;;;;;54.30;27.37;;;14.30;99.90;;;;;;5053989;28;20580;-60
2021/08/18 00:12:16;;;;;;;49.93;29.33;;;14.30;99.90;;;;;;5053533;28;20279;-59
2021/08/18 00:14:43;;;;;;;51.60;26.97;;;14.30;99.90;;;;;;5053927;28;20256;-58
2021/08/18 00:17:10;;;;;;;47.97;26.90;;;14.30;99.90;;;;;;5053767;28;20264;-58
2021/08/18 00:19:36;;;;;;;43.90;25.53;;;14.40;99.90;;;;;;5053553;28;20226;-58
2021/08/18 00:22:04;;;;;;;44.20;25.90;;;14.40;99.90;;;;;;5053404;28;20298;-58
2021/08/18 00:24:32;;;;;;;41.63;24.70;;;14.40;99.90;;;;;;5053472;28;20253;-58
2021/08/18 00:26:58;;;;;;;38.00;22.40;;;14.40;99.90;;;;;;5053117;28;20605;-58
2021/08/18 00:29:25;;;;;;;40.53;22.80;;;14.40;99.90;;;;;;5053023;28;20231;-56
2021/08/18 00:31:51;;;;;;;43.37;24.27;;;14.40;99.90;;;;;;5052808;28;20229;-61
2021/08/18 00:34:18;;;;;;;38.77;23.03;;;14.40;99.90;;;;;;5053202;28;20201;-58
2021/08/18 00:36:45;;;;;;;40.47;22.90;;;14.40;99.90;;;;;;5053332;28;20213;-56
2021/08/18 00:39:12;;;;;;;38.37;22.83;;;14.40;99.90;;;;;;5053003;28;20829;-60
2021/08/18 00:41:40;;;;;;;41.60;22.60;;;14.40;99.90;;;;;;5053103;28;20259;-60
2021/08/18 00:44:07;;;;;;;40.00;22.20;;;14.40;99.90;;;;;;5053066;28;20212;-61
2021/08/18 00:46:40;;;;;;;35.70;20.60;;;14.40;99.90;;;;;;5053319;28;20209;-60
2021/08/18 00:49:06;;;;;;;42.57;22.87;;;14.40;99.90;;;;;;5053182;28;20246;-60
2021/08/18 00:51:33;;;;;;;38.70;22.50;;;14.40;99.90;;;;;;5053099;28;20281;-60
2021/08/18 00:54:00;;;;;;;42.47;21.87;;;14.40;99.90;;;;;;5053581;28;20206;-59
2021/08/18 00:56:27;;;;;;;34.90;19.67;;;14.40;99.90;;;;;;5053343;28;20209;-59
2021/08/18 00:58:54;;;;;;;34.93;20.20;;;14.40;99.90;;;;;;5053033;28;20206;-60
2021/08/18 01:01:21;;;;;;;34.67;20.63;;;14.40;99.90;;;;;;5052660;28;20234;-59
2021/08/18 01:03:48;;;;;;;33.60;18.93;;;14.40;99.90;;;;;;5052755;28;20658;-60
2021/08/18 01:06:15;;;;;;;32.97;18.47;;;14.40;99.90;;;;;;5052671;28;20206;-61
2021/08/18 01:08:41;;;;;;;30.20;18.67;;;14.40;99.90;;;;;;5052525;28;20214;-60
2021/08/18 01:11:08;;;;;;;30.60;17.87;;;14.40;99.90;;;;;;5052615;28;20302;-61
2021/08/18 01:13:35;;;;;;;29.43;16.97;;;14.40;99.90;;;;;;5052533;28;20692;-60
2021/08/18 01:16:03;;;;;;;29.27;17.20;;;14.40;99.90;;;;;;5052572;28;20628;-60
2021/08/18 01:18:30;;;;;;;30.53;16.63;;;14.50;99.90;;;;;;5052601;28;20247;-60
2021/08/18 01:20:57;;;;;;;27.37;16.13;;;14.50;99.90;;;;;;5052181;28;20244;-60
2021/08/18 01:23:24;;;;;;;27.50;16.00;;;14.50;99.90;;;;;;5052224;28;20206;-61
2021/08/18 01:25:52;;;;;;;28.63;16.90;;;14.40;99.90;;;;;;5052594;28;20615;-60
2021/08/18 01:28:18;;;;;;;28.43;16.70;;;14.40;99.90;;;;;;5052279;28;20313;-60
2021/08/18 01:30:46;;;;;;;27.37;16.83;;;14.40;99.90;;;;;;5052187;28;20241;-58
2021/08/18 01:33:15;;;;;;;33.17;16.87;;;14.40;99.90;;;;;;5052056;28;20263;-60
2021/08/18 01:35:44;;;;;;;29.30;17.90;;;14.40;99.90;;;;;;5051813;28;20206;-61
2021/08/18 01:38:13;;;;;;;29.37;17.07;;;14.40;99.90;;;;;;5052306;28;20213;-60
2021/08/18 01:40:41;;;;;;;33.13;18.03;;;14.40;99.90;;;;;;5051914;28;20225;-60
2021/08/18 01:43:08;;;;;;;31.03;17.20;;;14.40;99.90;;;;;;5051886;28;20205;-61
2021/08/18 01:45:36;;;;;;;32.60;17.57;;;14.50;99.90;;;;;;5051817;28;20205;-61
2021/08/18 01:48:09;;;;;;;26.07;16.60;;;14.50;99.90;;;;;;5051803;28;20205;-60
2021/08/18 01:50:36;;;;;;;33.90;19.73;;;14.50;99.90;;;;;;5051992;28;20209;-61
2021/08/18 01:53:03;;;;;;;33.80;19.13;;;14.40;99.90;;;;;;5051831;28;20701;-61
2021/08/18 01:55:30;;;;;;;35.43;19.67;;;14.50;99.90;;;;;;5051742;28;20261;-60
2021/08/18 01:57:59;;;;;;;34.77;19.73;;;14.50;99.90;;;;;;5052085;28;20639;-60
2021/08/18 02:00:26;;;;;;;32.00;19.87;;;14.50;99.90;;;;;;5051761;28;20221;-62
2021/08/18 02:02:53;;;;;;;36.33;20.20;;;14.50;99.90;;;;;;5051671;28;20214;-61
2021/08/18 02:05:22;;;;;;;36.03;20.37;;;14.50;99.90;;;;;;5051969;28;20263;-61
2021/08/18 02:07:49;;;;;;;38.93;21.03;;;14.50;99.90;;;;;;5051974;28;20627;-61
2021/08/18 02:10:17;;;;;;;34.13;20.20;;;14.50;99.90;;;;;;5051815;28;20206;-61
2021/08/18 02:12:44;;;;;;;37.43;20.70;;;14.50;99.90;;;;;;5051995;28;20212;-61
2021/08/18 02:15:13;;;;;;;38.17;21.10;;;14.50;99.90;;;;;;5051443;28;20644;-60
2021/08/18 02:17:40;;;;;;;38.13;21.73;;;14.50;99.90;;;;;;5051648;28;20213;-60
2021/08/18 02:20:10;;;;;;;42.17;21.83;;;14.60;99.90;;;;;;5051656;28;20268;-60
2021/08/18 02:22:38;;;;;;;36.97;20.60;;;14.60;99.90;;;;;;5051460;28;20230;-58
2021/08/18 02:25:07;;;;;;;34.50;19.60;;;14.60;99.90;;;;;;5051504;28;20206;-60
2021/08/18 02:27:33;;;;;;;32.50;19.10;;;14.60;99.90;;;;;;5051398;28;20674;-60
2021/08/18 02:30:00;;;;;;;36.27;20.30;;;14.60;99.90;;;;;;5051322;28;20209;-60
2021/08/18 02:32:26;;;;;;;35.23;20.33;;;14.60;99.90;;;;;;5051587;28;20221;-59
2021/08/18 02:34:53;;;;;;;32.53;18.97;;;14.60;99.90;;;;;;5051514;28;20267;-59
2021/08/18 02:37:20;;;;;;;34.00;19.33;;;14.60;99.90;;;;;;5051372;28;20205;-60
2021/08/18 02:39:49;;;;;;;35.17;19.77;;;14.60;99.90;;;;;;5051413;28;20217;-58
2021/08/18 02:42:15;;;;;;;39.73;18.87;;;14.60;99.90;;;;;;5051144;28;20283;-59
2021/08/18 02:44:43;;;;;;;34.33;19.30;;;14.60;99.90;;;;;;5051400;28;20209;-59
2021/08/18 02:47:10;;;;;;;34.30;18.60;;;14.60;99.90;;;;;;5051388;28;20245;-60
2021/08/18 02:49:36;;;;;;;39.37;20.37;;;14.60;99.90;;;;;;5051380;28;20291;-59
2021/08/18 02:52:03;;;;;;;34.07;19.37;;;14.60;99.90;;;;;;5051408;28;20280;-58
2021/08/18 02:54:30;;;;;;;36.97;19.53;;;14.60;99.90;;;;;;5053825;28;20263;-60
2021/08/18 02:56:58;;;;;;;35.30;19.53;;;14.60;99.90;;;;;;5054989;28;20264;-60
2021/08/18 02:59:24;;;;;;;40.33;20.10;;;14.60;99.90;;;;;;5055206;28;20260;-59
2021/08/18 03:01:51;;;;;;;39.03;20.63;;;14.60;99.90;;;;;;5055093;28;20278;-60
2021/08/18 03:04:18;;;;;;;34.67;19.67;;;14.60;99.90;;;;;;5054861;28;20612;-60
2021/08/18 03:06:44;;;;;;;36.27;19.67;;;14.70;99.90;;;;;;5055018;28;20263;-62
2021/08/18 03:09:11;;;;;;;35.73;19.43;;;14.60;99.90;;;;;;5054862;28;20205;-61
2021/08/18 03:11:38;;;;;;;39.57;20.17;;;14.60;99.90;;;;;;5054641;28;20291;-61
2021/08/18 03:14:07;;;;;;;41.97;20.63;;;14.60;99.90;;;;;;5054671;28;20666;-60
2021/08/18 03:16:33;;;;;;;39.83;19.40;;;14.60;99.90;;;;;;5054811;28;20255;-60
2021/08/18 03:19:00;;;;;;;38.77;18.90;;;14.60;99.90;;;;;;5054835;28;20236;-60
2021/08/18 03:21:27;;;;;;;41.90;19.40;;;14.50;99.90;;;;;;5054479;28;20229;-60
2021/08/18 03:23:53;;;;;;;35.27;18.07;;;14.60;99.90;;;;;;5054474;28;20201;-61
2021/08/18 03:26:20;;;;;;;39.67;19.93;;;14.60;99.90;;;;;;5054560;28;20275;-60
2021/08/18 03:28:47;;;;;;;41.97;19.63;;;14.60;99.90;;;;;;5054482;28;20666;-60
2021/08/18 03:31:15;;;;;;;39.60;20.60;;;14.60;99.90;;;;;;5054377;28;20221;-61
2021/08/18 03:33:41;;;;;;;38.70;19.10;;;14.60;99.90;;;;;;5054438;28;20263;-61
2021/08/18 03:36:08;;;;;;;35.90;19.00;;;14.60;99.90;;;;;;5054454;28;20630;-61
2021/08/18 03:38:35;;;;;;;36.23;19.27;;;14.60;99.90;;;;;;5054003;28;20686;-60
2021/08/18 03:41:02;;;;;;;36.70;18.63;;;14.60;99.90;;;;;;5054375;28;20237;-60
2021/08/18 03:43:28;;;;;;;40.20;20.03;;;14.60;99.90;;;;;;5054229;28;20278;-59
2021/08/18 03:45:55;;;;;;;36.77;19.03;;;14.60;99.90;;;;;;5054514;28;20209;-61
2021/08/18 03:48:23;;;;;;;35.60;18.77;;;14.60;99.90;;;;;;5054503;28;20206;-60
2021/08/18 03:50:50;;;;;;;38.37;19.50;;;14.60;99.90;;;;;;5054332;28;20275;-61
2021/08/18 03:53:17;;;;;;;40.50;20.23;;;14.60;99.90;;;;;;5054107;28;20205;-60
2021/08/18 03:55:44;;;;;;;38.97;19.53;;;14.60;99.90;;;;;;5054370;28;20202;-60
2021/08/18 03:58:10;;;;;;;41.13;20.23;;;14.60;99.90;;;;;;5054152;28;20792;-60
2021/08/18 04:00:37;;;;;;;34.67;18.40;;;14.60;99.90;;;;;;5054275;28;20221;-60
2021/08/18 04:03:04;;;;;;;38.67;20.77;;;14.60;99.90;;;;;;5054253;28;20626;-61
2021/08/18 04:05:32;;;;;;;40.83;19.13;;;14.60;99.90;;;;;;5053449;28;20206;-62
2021/08/18 04:08:01;;;;;;;42.10;20.23;;;14.60;99.90;;;;;;5053711;28;20213;-61
2021/08/18 04:10:27;;;;;;;40.83;19.57;;;14.60;99.90;;;;;;5053567;28;20674;-61
2021/08/18 04:12:56;;;;;;;37.07;19.53;;;14.60;99.90;;;;;;5053834;28;20266;-61
2021/08/18 04:15:23;;;;;;;38.40;20.57;;;14.60;99.90;;;;;;5053617;28;20259;-61
2021/08/18 04:17:50;;;;;;;38.67;19.93;;;14.60;99.90;;;;;;5053667;28;20213;-61
2021/08/18 04:20:17;;;;;;;38.43;20.40;;;14.60;99.90;;;;;;5053333;28;20256;-62
2021/08/18 04:22:46;;;;;;;40.67;20.73;;;14.60;99.90;;;;;;5053713;28;20230;-61
2021/08/18 04:25:14;;;;;;;36.33;19.93;;;14.70;99.90;;;;;;5053425;28;20251;-61
2021/08/18 04:27:40;;;;;;;34.33;19.20;;;14.70;99.90;;;;;;5053519;28;20259;-60
2021/08/18 04:30:10;;;;;;;37.77;21.23;;;14.70;99.90;;;;;;5053383;28;20213;-60
2021/08/18 04:32:36;;;;;;;35.90;21.27;;;14.70;99.90;;;;;;5053173;28;20229;-60
2021/08/18 04:35:04;;;;;;;32.53;19.73;;;14.70;99.90;;;;;;5052979;28;20213;-60
2021/08/18 04:37:30;;;;;;;35.07;19.63;;;14.70;99.90;;;;;;5053206;28;20213;-61
2021/08/18 04:39:58;;;;;;;32.20;17.80;;;14.70;99.90;;;;;;5053236;28;20283;-60
2021/08/18 04:42:25;;;;;;;35.00;19.70;;;14.70;99.90;;;;;;5052654;28;20759;-60
2021/08/18 04:44:52;;;;;;;34.23;19.40;;;14.60;99.90;;;;;;5052949;28;20213;-60
2021/08/18 04:47:18;;;;;;;37.33;19.17;;;14.60;99.90;;;;;;5052848;28;20674;-61
2021/08/18 04:49:45;;;;;;;36.30;19.90;;;14.60;99.90;;;;;;5052853;28;20210;-60
2021/08/18 04:52:11;;;;;;;32.53;19.43;;;14.70;99.90;;;;;;5052959;28;20295;-61
2021/08/18 04:54:38;;;;;;;35.97;20.37;;;14.70;99.90;;;;;;5052773;28;20275;-61
2021/08/18 04:57:07;;;;;;;36.33;20.03;;;14.70;99.90;;;;;;5052938;28;20265;-60
2021/08/18 04:59:33;;;;;;;32.50;18.30;;;14.70;99.90;;;;;;5052799;28;20210;-60
2021/08/18 05:02:00;;;;;;;29.00;16.93;;;14.70;99.90;;;;;;5052649;28;20635;-59
2021/08/18 05:04:26;;;;;;;28.23;17.67;;;14.60;99.90;;;;;;5052757;28;20225;-60
2021/08/18 05:06:53;;;;;;;22.13;14.67;;;14.60;99.90;;;;;;5052911;28;20221;-59
2021/08/18 05:09:19;;;;;;;22.47;13.17;;;14.60;99.90;;;;;;5052753;28;20674;-60
2021/08/18 05:11:46;;;;;;;20.57;13.47;;;14.60;99.90;;;;;;5052577;28;20226;-61
2021/08/18 05:14:14;;;;;;;18.53;10.90;;;14.50;99.90;;;;;;5052345;28;20205;-62
2021/08/18 05:16:41;;;;;;;13.30;9.13;;;14.50;99.90;;;;;;5051950;28;20205;-60
2021/08/18 05:19:07;;;;;;;17.63;9.53;;;14.40;99.90;;;;;;5052568;28;20271;-60
2021/08/18 05:21:34;;;;;;;11.20;7.10;;;14.40;99.90;;;;;;5052264;28;20743;-59
2021/08/18 05:24:00;;;;;;;10.97;7.27;;;14.30;99.90;;;;;;5052717;28;20255;-60
2021/08/18 05:26:27;;;;;;;8.60;6.30;;;14.20;99.90;;;;;;5052483;28;20255;-61
2021/08/18 05:28:54;;;;;;;10.20;6.23;;;14.10;99.90;;;;;;5052343;28;20244;-60
2021/08/18 05:31:22;;;;;;;10.17;6.53;;;14.10;99.90;;;;;;5052149;28;20641;-59
2021/08/18 05:33:48;;;;;;;8.97;6.10;;;14.10;99.90;;;;;;5052295;28;20209;-60
2021/08/18 05:36:15;;;;;;;9.17;6.30;;;14.20;99.90;;;;;;5052115;28;20210;-61
2021/08/18 05:38:42;;;;;;;7.43;5.50;;;14.30;99.90;;;;;;5052219;28;20206;-61
2021/08/18 05:41:09;;;;;;;7.50;6.03;;;14.20;99.90;;;;;;5052064;28;20283;-59
2021/08/18 05:43:35;;;;;;;11.37;5.97;;;14.30;99.90;;;;;;5051938;28;20244;-60
2021/08/18 05:46:02;;;;;;;8.60;6.20;;;14.40;99.90;;;;;;5052661;28;20225;-61
2021/08/18 05:48:30;;;;;;;7.37;5.63;;;14.40;99.90;;;;;;5051884;28;20744;-60
2021/08/18 05:50:58;;;;;;;8.00;5.77;;;14.50;99.90;;;;;;5041964;28;20222;-61
2021/08/18 05:53:24;;;;;;;8.17;6.20;;;14.50;99.90;;;;;;5050816;28;20213;-59
2021/08/18 05:55:51;;;;;;;11.00;6.27;;;14.40;99.90;;;;;;5051968;28;20256;-60
2021/08/18 05:58:18;;;;;;;7.93;6.10;;;14.50;99.90;;;;;;5051689;28;20202;-60
2021/08/18 06:00:45;;;;;;;10.17;6.13;;;14.50;99.90;;;;;;5053111;28;20278;-65
2021/08/18 06:03:12;;;;;;;9.17;5.70;;;14.60;99.90;;;;;;5053122;28;20236;-61
2021/08/18 06:05:40;;;;;;;8.50;6.13;;;14.60;99.90;;;;;;5048427;28;20255;-57
2021/08/18 06:08:07;;;;;;;7.70;6.60;;;14.60;99.90;;;;;;5051329;28;20202;-61
2021/08/18 06:10:34;;;;;;;11.43;7.17;;;14.60;99.90;;;;;;5051689;28;20202;-61
2021/08/18 06:13:03;;;;;;;11.30;7.37;;;14.60;99.90;;;;;;5051956;28;20611;-61
2021/08/18 06:15:30;;;;;;;10.33;7.37;;;14.70;99.90;;;;;;5051037;28;20220;-57
2021/08/18 06:17:56;;;;;;;8.23;6.90;;;14.70;99.90;;;;;;5051498;28;20206;-60
2021/08/18 06:20:24;;;;;;;10.70;7.63;;;14.80;99.90;;;;;;5051303;28;20625;-60
2021/08/18 06:22:52;;;;;;;12.80;8.00;;;14.80;99.90;;;;;;5051454;28;20225;-60
2021/08/18 06:25:19;;;;;;;13.73;8.20;;;14.80;99.90;;;;;;5050480;28;20206;-59
2021/08/18 06:27:46;;;;;;;10.60;8.20;;;14.90;99.90;;;;;;5053024;28;20624;-59
2021/08/18 06:30:13;;;;;;;10.30;8.20;;;14.90;91.50;;;;;;5055183;28;20214;-59
2021/08/18 06:32:40;;;;;;;12.17;8.63;;;14.90;82.40;;;;;;5055248;28;20225;-58
2021/08/18 06:35:07;;;;;;;10.77;8.63;;;14.90;69.30;;;;;;5055068;28;20209;-58
2021/08/18 06:37:34;;;;;;;12.23;8.87;;;14.90;50.80;;;;;;5055044;28;20255;-59
2021/08/18 06:40:03;;;;;;;13.17;8.67;;;14.80;38.30;;;;;;5055056;28;20638;-58
2021/08/18 06:42:30;;;;;;;14.03;10.00;;;14.80;56.00;;;;;;5054925;28;20236;-60
2021/08/18 06:44:57;;;;;;;12.90;9.27;;;14.80;54.60;;;;;;5055060;28;20215;-60
2021/08/18 06:47:23;;;;;;;14.00;9.43;;;14.80;53.30;;;;;;5054767;28;20210;-58
2021/08/18 06:49:50;;;;;;;12.50;9.67;;;14.70;55.30;;;;;;5054515;28;20670;-61
2021/08/18 06:52:17;;;;;;;15.50;10.50;;;14.60;88.10;;;;;;5055049;28;20221;-60
2021/08/18 06:54:43;;;;;;;13.40;9.73;;;14.70;99.90;;;;;;5054934;28;20243;-62
2021/08/18 06:57:11;;;;;;;12.23;9.30;;;14.70;99.90;;;;;;5054140;28;20213;-59
2021/08/18 06:59:38;;;;;;;14.20;9.87;;;14.60;99.90;;;;;;5053587;28;20206;-61
2021/08/18 07:02:05;;;;;;;12.73;9.50;;;14.60;99.90;;;;;;5055038;28;20279;-59
2021/08/18 07:04:31;;;;;;;12.27;9.30;;;14.60;99.90;;;;;;5054635;28;20209;-60
2021/08/18 07:06:58;;;;;;;14.77;9.50;;;14.70;99.90;;;;;;5054613;28;20209;-59
2021/08/18 07:09:24;;;;;;;10.60;8.60;;;14.70;99.90;;;;;;5055003;28;20209;-61
2021/08/18 07:11:53;;;;;;;15.97;9.73;;;14.80;99.90;;;;;;5054705;28;20740;-59
2021/08/18 07:14:21;;;;;;;12.83;9.50;;;14.70;99.90;;;;;;5054607;28;20292;-61
2021/08/18 07:16:47;;;;;;;15.37;10.13;;;14.80;99.90;;;;;;5054871;28;20644;-62
2021/08/18 07:19:14;;;;;;;15.47;9.93;;;14.80;99.90;;;;;;5054870;28;20674;-61
2021/08/18 07:21:41;;;;;;;13.87;9.73;;;14.90;99.90;;;;;;5054450;28;20221;-59
2021/08/18 07:24:07;;;;;;;12.83;9.07;;;15.00;99.90;;;;;;5054423;28;20205;-61
2021/08/18 07:26:34;;;;;;;11.47;8.90;;;15.00;99.90;;;;;;5054428;28;20205;-61
2021/08/18 07:29:01;;;;;;;10.30;8.70;;;15.20;99.90;;;;;;5054628;28;20608;-61
2021/08/18 07:31:29;;;;;;;11.83;8.93;;;15.20;99.90;;;;;;5054343;28;20291;-60
2021/08/18 07:33:55;;;;;;;10.90;8.93;;;15.40;99.90;;;;;;5054200;28;20205;-59
2021/08/18 07:36:22;;;;;;;12.93;9.30;;;15.40;99.90;;;;;;5054923;28;20209;-61
2021/08/18 07:38:49;;;;;;;12.93;9.73;;;15.60;99.90;;;;;;5053733;28;20616;-62
2021/08/18 07:41:16;;;;;;;13.80;10.83;;;15.70;99.90;;;;;;5054251;28;20295;-61
2021/08/18 07:43:42;;;;;;;15.27;11.37;;;15.80;98.10;;;;;;5054199;28;20260;-59
2021/08/18 07:46:10;;;;;;;15.67;12.60;;;15.90;92.00;;;;;;5054208;28;20679;-62
2021/08/18 07:48:38;;;;;;;15.50;12.77;;;16.00;49.20;;;;;;5054051;28;20206;-61
2021/08/18 07:51:05;;;;;;;15.53;13.27;;;16.00;1.00;;;;;;5054433;28;20229;-61
2021/08/18 07:53:32;;;;;;;17.23;14.63;;;16.10;1.00;;;;;;5053634;28;20213;-61
2021/08/18 07:55:58;;;;;;;16.27;14.23;;;16.20;1.00;;;;;;5054317;28;20562;-61
2021/08/18 07:58:25;;;;;;;17.10;14.93;;;16.30;1.00;;;;;;5054051;28;20225;-62
2021/08/18 08:00:52;;;;;;;17.00;14.87;;;16.30;1.00;;;;;;5053964;28;20229;-61
2021/08/18 08:03:18;;;;;;;20.43;16.83;;;16.30;99.90;;;;;;5053584;28;20279;-59
2021/08/18 08:05:46;;;;;;;22.40;17.03;;;16.30;99.90;;;;;;5053796;28;20656;-63
2021/08/18 08:08:13;;;;;;;22.73;17.93;;;16.30;1.00;;;;;;5054250;28;20201;-61
2021/08/18 08:10:40;;;;;;;22.67;17.83;;;16.40;1.00;;;;;;5051492;28;20291;-63
2021/08/18 08:13:09;;;;;;;22.13;16.47;;;16.30;1.00;;;;;;5050531;28;20209;-65
2021/08/18 08:15:36;;;;;;;21.07;16.50;;;16.30;1.00;;;;;;5052489;28;20220;-63
2021/08/18 08:18:02;;;;;;;22.03;17.57;;;16.50;1.00;;;;;;5051247;28;20259;-63
2021/08/18 08:20:29;;;;;;;41.30;24.57;;;16.50;1.00;;;;;;5051192;28;20662;-63
2021/08/18 08:22:58;;;;;;;21.90;18.00;;;16.60;1.00;;;;;;5053555;28;20228;-64
2021/08/18 08:25:25;;;;;;;37.67;22.93;;;16.60;1.00;;;;;;5053450;28;20205;-63
2021/08/18 08:27:51;;;;;;;23.57;18.67;;;16.70;1.00;;;;;;5053490;28;20218;-64
2021/08/18 08:30:18;;;;;;;23.90;18.07;;;16.80;99.90;;;;;;5053213;28;20268;-62
2021/08/18 08:32:44;;;;;;;28.13;20.43;;;16.90;99.90;;;;;;5053473;28;20279;-61
2021/08/18 08:35:12;;;;;;;26.03;19.17;;;16.90;1.00;;;;;;5053525;28;20209;-64
2021/08/18 08:37:39;;;;;;;24.17;18.70;;;17.00;1.00;;;;;;5053174;28;20263;-63
2021/08/18 08:40:08;;;;;;;26.70;19.20;;;17.10;1.00;;;;;;5052694;28;20209;-64
2021/08/18 08:42:37;;;;;;;25.70;18.57;;;17.20;99.90;;;;;;5052444;28;20645;-65
2021/08/18 08:45:05;;;;;;;23.63;17.70;;;17.20;99.90;;;;;;5052664;28;20297;-60
2021/08/18 08:47:34;;;;;;;18.90;15.80;;;17.40;99.90;;;;;;5053019;28;20210;-66
2021/08/18 08:50:01;;;;;;;20.23;14.57;;;17.40;1.00;;;;;;5052759;28;20214;-68
2021/08/18 08:52:27;;;;;;;16.63;13.93;;;17.50;99.90;;;;;;5051684;28;20222;-66
2021/08/18 08:54:54;;;;;;;17.93;14.27;;;17.60;99.90;;;;;;5052785;28;20755;-64
2021/08/18 08:57:22;;;;;;;19.07;14.00;;;17.70;99.90;;;;;;5052538;28;20271;-64
2021/08/18 08:59:49;;;;;;;17.03;12.63;;;17.80;1.00;;;;;;5052848;28;20209;-64
2021/08/18 09:02:16;;;;;;;16.90;12.67;;;17.80;99.90;;;;;;5052353;28;20816;-64
2021/08/18 09:04:44;;;;;;;16.77;12.37;;;17.90;1.00;;;;;;5052459;28;20298;-65
2021/08/18 09:07:13;;;;;;;13.93;11.63;;;17.90;99.90;;;;;;5052436;28;20681;-64
2021/08/18 09:09:43;;;;;;;12.53;10.87;;;17.90;99.90;;;;;;5052516;28;20227;-66
2021/08/18 09:12:13;;;;;;;11.80;9.07;;;17.80;99.90;;;;;;5052055;28;21032;-65
2021/08/18 09:14:42;;;;;;;13.70;10.37;;;17.90;1.00;;;;;;5052656;28;20205;-66
2021/08/18 09:17:29;;;;;;;13.87;10.03;;;18.00;99.90;;;;;;5052271;28;20622;-66
2021/08/18 09:20:05;;;;;;;10.53;9.10;;;17.90;1.00;;;;;;5051172;28;20255;-66
2021/08/18 09:22:35;;;;;;;11.77;9.30;;;18.00;99.90;;;;;;5051854;28;20255;-66
2021/08/18 09:25:10;;;;;;;19.43;11.17;;;17.90;99.90;;;;;;5052282;28;20283;-65
2021/08/18 09:27:38;;;;;;;13.33;11.13;;;17.80;99.90;;;;;;5052014;28;20775;-66
2021/08/18 09:30:08;;;;;;;29.27;14.00;;;17.80;99.90;;;;;;5052111;28;20570;-66
2021/08/18 09:32:36;;;;;;;15.27;10.77;;;17.90;99.90;;;;;;5051832;28;20221;-64
2021/08/18 09:35:07;;;;;;;13.73;9.47;;;17.90;1.00;;;;;;5051671;28;20244;-64
2021/08/18 09:37:35;;;;;;;10.53;9.43;;;17.90;99.90;;;;;;5052065;28;20292;-65
2021/08/18 09:40:02;;;;;;;13.13;10.07;;;17.80;99.90;;;;;;5052003;28;20210;-63
2021/08/18 09:42:31;;;;;;;12.20;10.70;;;17.80;14.70;;;;;;5051620;28;20234;-62
2021/08/18 09:45:31;;;;;;;15.00;11.63;;;17.90;99.90;;;;;;5051572;28;20304;-65
2021/08/18 09:48:07;;;;;;;14.67;11.30;;;17.80;99.90;;;;;;5051959;28;20209;-65
2021/08/18 09:50:42;;;;;;;13.83;11.60;;;17.70;99.90;;;;;;5051647;28;20204;-62
2021/08/18 09:53:12;;;;;;;14.47;12.83;;;17.60;1.00;;;;;;5051791;28;20205;-66
2021/08/18 09:55:41;;;;;;;18.73;13.33;;;17.50;99.90;;;;;;5051664;28;20263;-63
2021/08/18 09:58:23;;;;;;;15.60;12.53;;;17.50;1.00;;;;;;5051705;28;20209;-63
2021/08/18 10:00:52;;;;;;;20.03;12.70;;;17.30;99.90;;;;;;5051473;28;20225;-64
2021/08/18 10:03:20;;;;;;;16.73;12.60;;;17.20;99.90;;;;;;5050809;28;20221;-65
2021/08/18 10:05:50;;;;;;;14.87;10.27;;;17.20;1.00;;;;;;5050520;28;20220;-62
2021/08/18 10:08:18;;;;;;;11.53;10.27;;;17.10;99.90;;;;;;5052016;28;20216;-63
2021/08/18 10:10:46;;;;;;;14.33;11.27;;;17.10;1.00;;;;;;5051711;28;20230;-62
2021/08/18 10:13:13;;;;;;;15.20;12.10;;;17.20;1.00;;;;;;5051689;28;20201;-66
2021/08/18 10:15:40;;;;;;;18.73;12.50;;;17.20;99.90;;;;;;5051430;28;20206;-67
2021/08/18 10:18:09;;;;;;;17.03;14.03;;;17.30;1.00;;;;;;5051655;28;20205;-67
2021/08/18 10:20:37;;;;;;;18.50;14.97;;;17.30;99.90;;;;;;5051724;28;20209;-67
2021/08/18 10:23:06;;;;;;;19.60;16.97;;;17.30;99.90;;;;;;5051596;28;20221;-65
2021/08/18 10:25:38;;;;;;;20.90;17.17;;;17.40;99.90;;;;;;5051622;28;20206;-66
2021/08/18 10:28:07;;;;;;;21.90;18.97;;;17.50;1.00;;;;;;5051152;28;20206;-67
2021/08/18 10:30:45;;;;;;;24.80;19.33;;;17.60;1.00;;;;;;5051296;28;20632;-65
2021/08/18 10:33:52;;;;;;;25.73;18.27;;;17.50;99.90;;;;;;5051303;28;20288;-68
2021/08/18 10:37:04;;;;;;;22.30;17.73;;;17.70;99.90;;;;;;5051091;28;20682;-65
2021/08/18 10:39:36;;;;;;;23.73;18.10;;;17.80;1.00;;;;;;5051035;28;20233;-65
2021/08/18 10:42:06;;;;;;;21.47;17.10;;;17.90;99.90;;;;;;5051265;28;20313;-65
2021/08/18 10:44:34;;;;;;;19.60;16.17;;;17.90;99.90;;;;;;5051220;28;20225;-64
2021/08/18 10:47:18;;;;;;;16.93;14.80;;;18.00;99.90;;;;;;5051179;28;20657;-64
2021/08/18 10:49:47;;;;;;;18.00;14.63;;;18.00;1.00;;;;;;5051031;28;20725;-64
2021/08/18 10:52:47;;;;;;;14.83;13.20;;;18.00;1.00;;;;;;5051094;28;20229;-65
2021/08/18 10:55:16;;;;;;;14.40;12.63;;;18.00;99.90;;;;;;5051060;28;20205;-64
2021/08/18 10:57:47;;;;;;;14.30;12.50;;;17.90;1.00;;;;;;5051033;28;20229;-66
2021/08/18 11:00:22;;;;;;;16.90;13.53;;;17.90;24.00;;;;;;5051120;28;20259;-65
2021/08/18 11:03:00;;;;;;;40.80;18.07;;;17.90;99.90;;;;;;5050856;28;20229;-62
2021/08/18 11:05:30;;;;;;;14.17;12.03;;;18.00;20.40;;;;;;5051146;28;20209;-62
2021/08/18 11:08:02;;;;;;;237.77;54.73;;;18.10;99.90;;;;;;5050977;28;20213;-62
2021/08/18 11:10:31;;;;;;;15.70;11.77;;;18.20;99.90;;;;;;5050822;28;20210;-62
2021/08/18 11:12:58;;;;;;;11.97;10.37;;;18.20;1.00;;;;;;5050449;28;20578;-62
2021/08/18 11:15:51;;;;;;;12.40;9.60;;;18.30;99.90;;;;;;5053370;28;20654;-62
2021/08/18 11:18:19;;;;;;;11.17;10.00;;;18.30;99.90;;;;;;5054599;28;20201;-62
2021/08/18 11:20:56;;;;;;;11.80;9.47;;;18.30;1.00;;;;;;5054488;28;20280;-62
2021/08/18 11:23:28;;;;;;;10.23;9.13;;;18.20;99.90;;;;;;5054227;28;20713;-62
2021/08/18 11:26:01;;;;;;;9.47;8.57;;;18.30;99.90;;;;;;5054461;28;20241;-62
2021/08/18 11:28:31;;;;;;;7.83;6.47;;;18.30;13.20;;;;;;5054552;28;20217;-62
2021/08/18 11:31:00;;;;;;;7.70;6.33;;;18.30;99.90;;;;;;5054222;28;20587;-62
2021/08/18 11:33:28;;;;;;;7.73;5.60;;;18.40;1.00;;;;;;5053901;28;20197;-62
2021/08/18 11:35:55;;;;;;;6.20;4.70;;;18.50;99.90;;;;;;5053946;28;20303;-62
2021/08/18 11:38:23;;;;;;;4.60;4.20;;;18.60;1.00;;;;;;5054388;28;20216;-62
2021/08/18 11:40:51;;;;;;;4.77;4.30;;;18.70;1.00;;;;;;5054320;28;20590;-62
2021/08/18 11:43:35;;;;;;;4.63;4.23;;;18.70;1.00;;;;;;5053839;28;20275;-62
2021/08/18 11:46:02;;;;;;;4.80;4.40;;;18.80;1.00;;;;;;5054207;28;20217;-62
2021/08/18 11:48:29;;;;;;;5.20;4.70;;;18.90;1.00;;;;;;5053798;28;20279;-60
2021/08/18 11:50:57;;;;;;;7.13;6.43;;;19.00;1.00;;;;;;5053884;28;20675;-62
2021/08/18 11:53:25;;;;;;;7.83;6.30;;;19.10;99.90;;;;;;5053423;28;20658;-63
2021/08/18 11:55:59;;;;;;;6.30;5.70;;;19.20;1.00;;;;;;5052417;28;20209;-62
2021/08/18 11:58:35;;;;;;;6.97;6.23;;;19.10;1.00;;;;;;5054036;28;20291;-62
2021/08/18 12:01:05;;;;;;;8.53;5.93;;;19.10;52.00;;;;;;5054321;28;20290;-62
2021/08/18 12:03:33;;;;;;;8.77;6.87;;;19.10;1.00;;;;;;5053547;28;20230;-63
2021/08/18 12:06:01;;;;;;;7.60;6.13;;;19.10;1.00;;;;;;5053550;28;20213;-62
2021/08/18 12:08:36;;;;;;;7.67;6.00;;;18.90;99.90;;;;;;5053729;28;20205;-61
2021/08/18 12:11:04;;;;;;;6.67;5.63;;;18.80;1.00;;;;;;5053363;28;20229;-62
2021/08/18 12:13:47;;;;;;;6.23;5.37;;;18.70;99.90;;;;;;5053297;28;20663;-62
2021/08/18 12:16:28;;;;;;;5.53;4.90;;;18.60;22.50;;;;;;5053595;28;20205;-62
2021/08/18 12:19:14;;;;;;;7.60;5.33;;;18.60;1.00;;;;;;5053547;28;20249;-62
2021/08/18 12:21:41;;;;;;;5.13;4.63;;;18.40;99.90;;;;;;5052846;28;20646;-62
2021/08/18 12:24:11;;;;;;;5.80;4.60;;;18.50;99.90;;;;;;5053295;28;20229;-62
2021/08/18 12:26:39;;;;;;;7.43;4.70;;;18.50;99.90;;;;;;5053135;28;20213;-62
2021/08/18 12:29:09;;;;;;;5.00;4.50;;;18.60;1.00;;;;;;5053084;28;20206;-63
2021/08/18 12:31:55;;;;;;;4.93;4.27;;;18.60;19.70;;;;;;5053002;28;20311;-61
2021/08/18 12:34:41;;;;;;;5.53;4.40;;;18.60;1.00;;;;;;5053095;28;20604;-61
2021/08/18 12:37:11;;;;;;;4.60;3.93;;;18.50;1.00;;;;;;5053456;28;20585;-64
2021/08/18 12:39:41;;;;;;;4.67;3.60;;;18.50;1.00;;;;;;5053235;28;20323;-65